createdAt,value
2017-11-11T00:00:02.833Z,10.94
2017-11-11T00:00:43.407Z,10.94
2017-11-11T00:01:23.914Z,10.91
2017-11-11T00:02:04.516Z,10.91
2017-11-11T00:02:45.008Z,10.94
2017-11-11T00:03:25.612Z,10.99
2017-11-11T00:04:06.135Z,10.94
2017-11-11T00:04:46.686Z,10.97
2017-11-11T00:05:27.408Z,10.96
2017-11-11T00:06:07.873Z,10.92
2017-11-11T00:06:48.454Z,10.92
2017-11-11T00:07:28.956Z,10.89
2017-11-11T00:08:09.512Z,10.81
2017-11-11T00:08:50.063Z,10.99
2017-11-11T00:09:30.670Z,10.91
2017-11-11T00:10:11.174Z,10.96
2017-11-11T00:10:51.778Z,11.07
2017-11-11T00:11:32.348Z,11.03
2017-11-11T00:12:12.888Z,11
2017-11-11T00:12:53.433Z,10.99
2017-11-11T00:13:33.979Z,11.03
2017-11-11T00:14:14.516Z,11.07
2017-11-11T00:14:55.087Z,11.06
2017-11-11T00:15:35.627Z,10.94
2017-11-11T00:16:16.171Z,10.94
2017-11-11T00:16:56.718Z,10.85
2017-11-11T00:17:37.238Z,10.89
2017-11-11T00:18:17.806Z,10.85
2017-11-11T00:18:58.306Z,10.81
2017-11-11T00:19:38.868Z,10.74
2017-11-11T00:20:19.472Z,10.88
2017-11-11T00:20:59.972Z,10.79
2017-11-11T00:21:40.523Z,10.84
2017-11-11T00:22:21.050Z,10.88
2017-11-11T00:23:01.582Z,10.88
2017-11-11T00:23:42.125Z,10.82
2017-11-11T00:24:22.740Z,10.82
2017-11-11T00:25:03.247Z,10.81
2017-11-11T00:25:43.837Z,10.81
2017-11-11T00:26:24.345Z,10.86
2017-11-11T00:27:04.901Z,10.82
2017-11-11T00:27:45.545Z,10.86
2017-11-11T00:28:26.206Z,10.82
2017-11-11T00:29:06.766Z,10.86
2017-11-11T00:29:47.323Z,10.82
2017-11-11T00:30:27.861Z,10.79
2017-11-11T00:31:08.439Z,10.7
2017-11-11T00:31:48.955Z,10.6
2017-11-11T00:32:29.536Z,10.61
2017-11-11T00:33:10.067Z,10.67
2017-11-11T00:33:50.603Z,10.73
2017-11-11T00:34:31.171Z,10.66
2017-11-11T00:35:11.768Z,10.63
2017-11-11T00:35:52.773Z,10.73
2017-11-11T00:36:33.739Z,10.73
2017-11-11T00:37:14.313Z,10.78
2017-11-11T00:37:54.819Z,10.78
2017-11-11T00:38:35.352Z,10.76
2017-11-11T00:39:15.881Z,10.67
2017-11-11T00:39:56.482Z,10.73
2017-11-11T00:40:36.960Z,10.79
2017-11-11T00:41:17.477Z,10.78
2017-11-11T00:41:58.050Z,10.7
2017-11-11T00:42:38.554Z,10.73
2017-11-11T00:43:19.160Z,10.63
2017-11-11T00:43:59.697Z,10.66
2017-11-11T00:44:40.228Z,10.64
2017-11-11T00:45:20.752Z,10.64
2017-11-11T00:46:01.337Z,10.66
2017-11-11T00:46:41.883Z,10.73
2017-11-11T00:47:22.443Z,10.71
2017-11-11T00:48:02.969Z,10.76
2017-11-11T00:48:43.516Z,10.76
2017-11-11T00:49:24.097Z,10.79
2017-11-11T00:50:04.645Z,10.82
2017-11-11T00:50:45.182Z,10.81
2017-11-11T00:51:25.746Z,10.71
2017-11-11T00:52:06.302Z,10.78
2017-11-11T00:52:46.810Z,10.74
2017-11-11T00:53:27.345Z,10.6
2017-11-11T00:54:07.909Z,10.68
2017-11-11T00:54:48.403Z,10.64
2017-11-11T00:55:28.933Z,10.64
2017-11-11T00:56:09.468Z,10.71
2017-11-11T00:56:50.003Z,10.82
2017-11-11T00:57:30.547Z,10.68
2017-11-11T00:58:11.075Z,10.56
2017-11-11T00:58:51.641Z,10.7
2017-11-11T00:59:32.195Z,10.59
2017-11-11T01:00:12.715Z,10.59
2017-11-11T01:00:53.293Z,10.63
2017-11-11T01:01:33.817Z,10.73
2017-11-11T01:02:14.358Z,10.67
2017-11-11T01:02:54.884Z,10.74
2017-11-11T01:03:35.389Z,10.76
2017-11-11T01:04:15.943Z,10.76
2017-11-11T01:04:56.454Z,10.76
2017-11-11T01:05:36.998Z,10.64
2017-11-11T01:06:17.509Z,10.76
2017-11-11T01:06:58.060Z,10.78
2017-11-11T01:07:38.588Z,10.73
2017-11-11T01:08:19.147Z,10.79
2017-11-11T01:08:59.714Z,10.73
2017-11-11T01:09:40.272Z,10.73
2017-11-11T01:10:20.855Z,10.79
2017-11-11T01:11:01.390Z,10.74
2017-11-11T01:11:41.953Z,10.71
2017-11-11T01:12:22.475Z,10.71
2017-11-11T01:13:03.093Z,10.73
2017-11-11T01:13:43.556Z,10.73
2017-11-11T01:14:24.123Z,10.76
2017-11-11T01:15:04.687Z,10.82
2017-11-11T01:15:45.265Z,10.81
2017-11-11T01:16:25.816Z,10.7
2017-11-11T01:17:06.392Z,10.76
2017-11-11T01:17:46.904Z,10.78
2017-11-11T01:18:27.447Z,10.73
2017-11-11T01:19:08.023Z,10.79
2017-11-11T01:19:48.549Z,10.82
2017-11-11T01:20:29.102Z,10.79
2017-11-11T01:21:09.666Z,10.79
2017-11-11T01:21:50.221Z,10.84
2017-11-11T01:22:30.790Z,10.79
2017-11-11T01:23:11.337Z,10.81
2017-11-11T01:23:51.921Z,10.81
2017-11-11T01:24:32.516Z,10.81
2017-11-11T01:25:13.048Z,10.7
2017-11-11T01:25:53.594Z,10.81
2017-11-11T01:26:34.163Z,10.79
2017-11-11T01:27:14.697Z,10.82
2017-11-11T01:27:55.254Z,10.82
2017-11-11T01:28:35.819Z,10.67
2017-11-11T01:29:16.381Z,10.82
2017-11-11T01:29:56.934Z,10.79
2017-11-11T01:30:37.485Z,10.84
2017-11-11T01:31:18.040Z,10.85
2017-11-11T01:32:00.839Z,10.79
2017-11-11T01:32:41.396Z,10.76
2017-11-11T01:33:21.960Z,10.79
2017-11-11T01:34:02.496Z,10.78
2017-11-11T01:34:43.053Z,10.78
2017-11-11T01:35:23.729Z,10.79
2017-11-11T01:36:04.332Z,10.61
2017-11-11T01:36:44.919Z,10.67
2017-11-11T01:37:25.428Z,10.7
2017-11-11T01:38:05.976Z,10.73
2017-11-11T01:38:46.511Z,10.74
2017-11-11T01:39:27.057Z,10.74
2017-11-11T01:40:07.592Z,10.61
2017-11-11T01:40:48.146Z,10.79
2017-11-11T01:41:28.698Z,10.74
2017-11-11T01:42:09.269Z,10.73
2017-11-11T01:42:49.844Z,10.71
2017-11-11T01:43:30.413Z,10.59
2017-11-11T01:44:10.953Z,10.67
2017-11-11T01:44:51.524Z,10.78
2017-11-11T01:45:32.088Z,10.79
2017-11-11T01:46:12.586Z,10.81
2017-11-11T01:46:53.136Z,10.78
2017-11-11T01:47:33.693Z,10.61
2017-11-11T01:48:14.229Z,10.7
2017-11-11T01:48:54.789Z,10.61
2017-11-11T01:49:35.373Z,10.66
2017-11-11T01:50:15.929Z,10.63
2017-11-11T01:50:56.482Z,10.61
2017-11-11T01:51:37.079Z,10.68
2017-11-11T01:52:17.629Z,10.71
2017-11-11T01:52:58.166Z,10.64
2017-11-11T01:53:38.726Z,10.61
2017-11-11T01:54:19.278Z,10.76
2017-11-11T01:54:59.808Z,10.64
2017-11-11T01:55:40.355Z,10.71
2017-11-11T01:56:20.884Z,10.71
2017-11-11T01:57:01.420Z,10.78
2017-11-11T01:57:42.032Z,10.7
2017-11-11T01:58:22.593Z,10.68
2017-11-11T01:59:03.201Z,10.55
2017-11-11T01:59:43.775Z,10.6
2017-11-11T02:00:24.316Z,10.74
2017-11-11T02:01:04.851Z,10.74
2017-11-11T02:01:45.408Z,10.67
2017-11-11T02:02:26.007Z,10.61
2017-11-11T02:03:06.571Z,10.51
2017-11-11T02:03:47.146Z,10.52
2017-11-11T02:04:27.667Z,10.4
2017-11-11T02:05:08.237Z,10.52
2017-11-11T02:05:48.792Z,10.52
2017-11-11T02:06:29.363Z,10.51
2017-11-11T02:07:09.909Z,10.52
2017-11-11T02:07:50.457Z,10.55
2017-11-11T02:08:31.015Z,10.63
2017-11-11T02:09:11.568Z,10.64
2017-11-11T02:09:52.096Z,10.63
2017-11-11T02:10:32.692Z,10.59
2017-11-11T02:11:13.266Z,10.59
2017-11-11T02:11:53.811Z,10.63
2017-11-11T02:12:34.420Z,10.56
2017-11-11T02:13:14.991Z,10.59
2017-11-11T02:13:55.555Z,10.59
2017-11-11T02:14:36.111Z,10.53
2017-11-11T02:15:16.661Z,10.56
2017-11-11T02:15:57.193Z,10.59
2017-11-11T02:16:37.764Z,10.6
2017-11-11T02:17:18.361Z,10.68
2017-11-11T02:17:58.911Z,10.53
2017-11-11T02:18:39.533Z,10.61
2017-11-11T02:19:20.092Z,10.74
2017-11-11T02:20:00.630Z,10.63
2017-11-11T02:20:41.218Z,10.7
2017-11-11T02:21:21.765Z,10.7
2017-11-11T02:22:02.312Z,10.61
2017-11-11T02:22:42.841Z,10.68
2017-11-11T02:23:23.451Z,10.71
2017-11-11T02:24:04.014Z,10.76
2017-11-11T02:24:44.518Z,10.56
2017-11-11T02:25:25.087Z,10.74
2017-11-11T02:26:05.635Z,10.63
2017-11-11T02:26:46.209Z,10.7
2017-11-11T02:27:26.749Z,10.61
2017-11-11T02:28:07.290Z,10.7
2017-11-11T02:28:47.907Z,10.64
2017-11-11T02:29:28.536Z,10.47
2017-11-11T02:30:09.074Z,10.52
2017-11-11T02:30:49.605Z,10.71
2017-11-11T02:31:30.281Z,10.63
2017-11-11T02:32:10.793Z,10.47
2017-11-11T02:32:51.344Z,10.55
2017-11-11T02:33:31.886Z,10.56
2017-11-11T02:34:12.430Z,10.45
2017-11-11T02:34:52.958Z,10.38
2017-11-11T02:35:33.488Z,10.45
2017-11-11T02:36:14.095Z,10.42
2017-11-11T02:36:54.655Z,10.34
2017-11-11T02:37:35.194Z,10.38
2017-11-11T02:38:15.761Z,10.38
2017-11-11T02:38:56.323Z,10.4
2017-11-11T02:39:36.863Z,10.42
2017-11-11T02:40:17.420Z,10.38
2017-11-11T02:40:57.954Z,10.47
2017-11-11T02:41:38.524Z,10.56
2017-11-11T02:42:19.049Z,10.4
2017-11-11T02:42:59.625Z,10.52
2017-11-11T02:43:40.288Z,10.52
2017-11-11T02:44:20.822Z,10.38
2017-11-11T02:45:01.366Z,10.4
2017-11-11T02:45:41.915Z,10.59
2017-11-11T02:46:22.461Z,10.55
2017-11-11T02:47:03.022Z,10.51
2017-11-11T02:47:43.575Z,10.51
2017-11-11T02:48:24.131Z,10.47
2017-11-11T02:49:04.716Z,10.52
2017-11-11T02:49:45.240Z,10.59
2017-11-11T02:50:26.009Z,10.55
2017-11-11T02:51:06.540Z,10.61
2017-11-11T02:51:47.090Z,10.63
2017-11-11T02:52:27.624Z,10.63
2017-11-11T02:53:08.191Z,10.7
2017-11-11T02:53:48.748Z,10.61
2017-11-11T02:54:29.300Z,10.63
2017-11-11T02:55:09.838Z,10.6
2017-11-11T02:55:50.390Z,10.6
2017-11-11T02:56:30.898Z,10.59
2017-11-11T02:57:11.584Z,10.53
2017-11-11T02:57:52.236Z,10.52
2017-11-11T02:58:32.747Z,10.6
2017-11-11T02:59:13.275Z,10.61
2017-11-11T02:59:53.812Z,10.67
2017-11-11T03:00:34.357Z,10.66
2017-11-11T03:01:14.960Z,10.59
2017-11-11T03:01:55.460Z,10.52
2017-11-11T03:02:36.046Z,10.51
2017-11-11T03:03:16.598Z,10.59
2017-11-11T03:03:57.137Z,10.59
2017-11-11T03:04:37.668Z,10.63
2017-11-11T03:05:18.216Z,10.6
2017-11-11T03:05:58.769Z,10.6
2017-11-11T03:06:39.329Z,10.63
2017-11-11T03:07:19.876Z,10.61
2017-11-11T03:08:00.445Z,10.76
2017-11-11T03:08:40.979Z,10.71
2017-11-11T03:09:21.611Z,10.68
2017-11-11T03:10:02.151Z,10.78
2017-11-11T03:10:42.678Z,10.76
2017-11-11T03:11:23.251Z,10.63
2017-11-11T03:12:03.770Z,10.67
2017-11-11T03:12:44.300Z,10.59
2017-11-11T03:13:24.867Z,10.66
2017-11-11T03:14:05.427Z,10.63
2017-11-11T03:14:46.004Z,10.61
2017-11-11T03:15:26.613Z,10.59
2017-11-11T03:16:07.145Z,10.59
2017-11-11T03:16:47.717Z,10.53
2017-11-11T03:17:28.314Z,10.6
2017-11-11T03:18:08.803Z,10.55
2017-11-11T03:18:49.310Z,10.52
2017-11-11T03:19:29.874Z,10.48
2017-11-11T03:20:10.421Z,10.52
2017-11-11T03:20:50.981Z,10.51
2017-11-11T03:21:31.538Z,10.52
2017-11-11T03:22:12.094Z,10.47
2017-11-11T03:22:52.588Z,10.48
2017-11-11T03:23:33.195Z,10.42
2017-11-11T03:24:13.740Z,10.47
2017-11-11T03:24:54.293Z,10.56
2017-11-11T03:25:34.835Z,10.52
2017-11-11T03:26:15.433Z,10.44
2017-11-11T03:26:55.967Z,10.44
2017-11-11T03:27:36.585Z,10.42
2017-11-11T03:28:17.133Z,10.48
2017-11-11T03:28:57.700Z,10.52
2017-11-11T03:29:38.244Z,10.53
2017-11-11T03:30:18.789Z,10.7
2017-11-11T03:30:59.364Z,10.56
2017-11-11T03:31:39.895Z,10.61
2017-11-11T03:32:20.468Z,10.53
2017-11-11T03:33:01.018Z,10.53
2017-11-11T03:33:41.670Z,10.48
2017-11-11T03:34:22.227Z,10.41
2017-11-11T03:35:02.766Z,10.53
2017-11-11T03:35:43.279Z,10.52
2017-11-11T03:36:23.827Z,10.44
2017-11-11T03:37:04.438Z,10.41
2017-11-11T03:37:44.900Z,10.34
2017-11-11T03:38:25.462Z,10.33
2017-11-11T03:39:05.986Z,10.56
2017-11-11T03:39:46.554Z,10.51
2017-11-11T03:40:27.072Z,10.56
2017-11-11T03:41:07.622Z,10.48
2017-11-11T03:41:48.168Z,10.52
2017-11-11T03:42:28.742Z,10.52
2017-11-11T03:43:09.301Z,10.51
2017-11-11T03:43:49.847Z,10.56
2017-11-11T03:44:30.427Z,10.47
2017-11-11T03:45:10.958Z,10.55
2017-11-11T03:45:51.498Z,10.42
2017-11-11T03:46:32.069Z,10.55
2017-11-11T03:47:12.612Z,10.48
2017-11-11T03:47:53.163Z,10.51
2017-11-11T03:48:33.718Z,10.51
2017-11-11T03:49:14.263Z,10.51
2017-11-11T03:49:54.796Z,10.4
2017-11-11T03:50:35.367Z,10.36
2017-11-11T03:51:15.924Z,10.42
2017-11-11T03:51:56.505Z,10.4
2017-11-11T03:52:37.078Z,10.36
2017-11-11T03:53:17.623Z,10.33
2017-11-11T03:53:58.173Z,10.41
2017-11-11T03:54:38.750Z,10.38
2017-11-11T03:55:19.261Z,10.36
2017-11-11T03:55:59.821Z,10.45
2017-11-11T03:56:40.367Z,10.4
2017-11-11T03:57:21.623Z,10.41
2017-11-11T03:58:01.604Z,10.38
2017-11-11T03:58:42.143Z,10.47
2017-11-11T03:59:22.690Z,10.53
2017-11-11T04:00:03.242Z,10.56
2017-11-11T04:00:43.758Z,10.53
2017-11-11T04:01:24.328Z,10.52
2017-11-11T04:02:04.851Z,10.48
2017-11-11T04:02:45.476Z,10.52
2017-11-11T04:03:26.046Z,10.55
2017-11-11T04:04:06.547Z,10.55
2017-11-11T04:04:47.064Z,10.55
2017-11-11T04:05:27.657Z,10.53
2017-11-11T04:06:08.204Z,10.51
2017-11-11T04:06:48.753Z,10.34
2017-11-11T04:07:29.301Z,10.38
2017-11-11T04:08:09.853Z,10.38
2017-11-11T04:08:50.424Z,10.32
2017-11-11T04:09:30.962Z,10.17
2017-11-11T04:10:11.526Z,10.26
2017-11-11T04:10:52.064Z,10.17
2017-11-11T04:11:32.610Z,10.17
2017-11-11T04:12:13.163Z,10.11
2017-11-11T04:12:53.722Z,10.11
2017-11-11T04:13:34.289Z,10.22
2017-11-11T04:14:14.852Z,10.14
2017-11-11T04:14:55.395Z,10.23
2017-11-11T04:15:35.938Z,10.17
2017-11-11T04:16:16.437Z,10.14
2017-11-11T04:16:56.975Z,10.27
2017-11-11T04:17:37.514Z,10.36
2017-11-11T04:18:18.110Z,10.42
2017-11-11T04:18:58.682Z,10.4
2017-11-11T04:19:39.196Z,10.38
2017-11-11T04:20:19.773Z,10.42
2017-11-11T04:21:00.308Z,10.34
2017-11-11T04:21:40.903Z,10.36
2017-11-11T04:22:21.428Z,10.32
2017-11-11T04:23:01.993Z,10.36
2017-11-11T04:23:42.666Z,10.27
2017-11-11T04:24:23.222Z,10.29
2017-11-11T04:25:03.769Z,10.42
2017-11-11T04:25:44.366Z,10.4
2017-11-11T04:26:24.942Z,10.4
2017-11-11T04:27:05.516Z,10.47
2017-11-11T04:27:46.822Z,10.45
2017-11-11T04:28:27.346Z,10.53
2017-11-11T04:29:07.921Z,10.52
2017-11-11T04:29:48.430Z,10.53
2017-11-11T04:30:29.016Z,10.34
2017-11-11T04:31:09.526Z,10.38
2017-11-11T04:31:50.048Z,10.41
2017-11-11T04:32:30.629Z,10.27
2017-11-11T04:33:11.175Z,10.38
2017-11-11T04:33:51.691Z,10.34
2017-11-11T04:34:32.245Z,10.4
2017-11-11T04:35:12.825Z,10.56
2017-11-11T04:35:53.359Z,10.55
2017-11-11T04:36:33.920Z,10.52
2017-11-11T04:37:14.472Z,10.52
2017-11-11T04:37:55.047Z,10.6
2017-11-11T04:38:35.577Z,10.53
2017-11-11T04:39:16.124Z,10.52
2017-11-11T04:39:56.674Z,10.6
2017-11-11T04:40:37.214Z,10.51
2017-11-11T04:41:17.779Z,10.53
2017-11-11T04:41:58.313Z,10.52
2017-11-11T04:42:38.853Z,10.41
2017-11-11T04:43:19.408Z,10.55
2017-11-11T04:44:00.062Z,10.59
2017-11-11T04:44:40.651Z,10.52
2017-11-11T04:45:21.181Z,10.48
2017-11-11T04:46:01.737Z,10.47
2017-11-11T04:46:42.304Z,10.6
2017-11-11T04:47:22.854Z,10.53
2017-11-11T04:48:03.384Z,10.53
2017-11-11T04:48:43.942Z,10.55
2017-11-11T04:49:24.493Z,10.47
2017-11-11T04:50:05.132Z,10.56
2017-11-11T04:50:45.636Z,10.52
2017-11-11T04:51:26.171Z,10.53
2017-11-11T04:52:06.737Z,10.52
2017-11-11T04:52:47.311Z,10.48
2017-11-11T04:53:27.872Z,10.61
2017-11-11T04:54:08.426Z,10.51
2017-11-11T04:54:48.987Z,10.63
2017-11-11T04:55:29.553Z,10.61
2017-11-11T04:56:10.073Z,10.53
2017-11-11T04:56:50.652Z,10.52
2017-11-11T04:57:31.188Z,10.52
2017-11-11T04:58:11.750Z,10.52
2017-11-11T04:58:52.310Z,10.55
2017-11-11T04:59:32.829Z,10.41
2017-11-11T05:00:13.435Z,10.34
2017-11-11T05:00:53.965Z,10.34
2017-11-11T05:01:34.500Z,10.38
2017-11-11T05:02:15.049Z,10.38
2017-11-11T05:02:55.654Z,10.42
2017-11-11T05:03:36.193Z,10.4
2017-11-11T05:04:16.784Z,10.56
2017-11-11T05:04:57.335Z,10.47
2017-11-11T05:05:37.843Z,10.52
2017-11-11T05:06:18.467Z,10.52
2017-11-11T05:06:59.011Z,10.53
2017-11-11T05:07:39.538Z,10.55
2017-11-11T05:08:20.087Z,10.56
2017-11-11T05:09:00.801Z,10.52
2017-11-11T05:09:41.299Z,10.45
2017-11-11T05:10:21.822Z,10.53
2017-11-11T05:11:02.431Z,10.59
2017-11-11T05:11:42.919Z,10.52
2017-11-11T05:12:23.478Z,10.6
2017-11-11T05:13:03.960Z,10.47
2017-11-11T05:13:44.541Z,10.42
2017-11-11T05:14:25.050Z,10.41
2017-11-11T05:15:05.634Z,10.45
2017-11-11T05:15:46.227Z,10.52
2017-11-11T05:16:26.760Z,10.56
2017-11-11T05:17:07.317Z,10.53
2017-11-11T05:17:47.835Z,10.55
2017-11-11T05:18:28.403Z,10.55
2017-11-11T05:19:08.966Z,10.56
2017-11-11T05:19:49.500Z,10.45
2017-11-11T05:20:30.049Z,10.4
2017-11-11T05:21:10.578Z,10.48
2017-11-11T05:21:51.145Z,10.56
2017-11-11T05:22:31.688Z,10.51
2017-11-11T05:23:12.252Z,10.63
2017-11-11T05:23:52.785Z,10.48
2017-11-11T05:24:33.312Z,10.55
2017-11-11T05:25:13.864Z,10.44
2017-11-11T05:25:54.382Z,10.41
2017-11-11T05:26:34.960Z,10.4
2017-11-11T05:27:15.499Z,10.42
2017-11-11T05:27:56.032Z,10.4
2017-11-11T05:28:36.562Z,10.41
2017-11-11T05:29:17.119Z,10.53
2017-11-11T05:29:57.646Z,10.51
2017-11-11T05:30:38.198Z,10.44
2017-11-11T05:31:18.760Z,10.53
2017-11-11T05:31:59.316Z,10.61
2017-11-11T05:32:39.841Z,10.52
2017-11-11T05:33:20.423Z,10.53
2017-11-11T05:34:01.012Z,10.59
2017-11-11T05:34:41.515Z,10.64
2017-11-11T05:35:22.065Z,10.61
2017-11-11T05:36:02.604Z,10.51
2017-11-11T05:36:43.161Z,10.6
2017-11-11T05:37:23.772Z,10.73
2017-11-11T05:38:04.253Z,10.67
2017-11-11T05:38:44.874Z,10.71
2017-11-11T05:39:25.447Z,10.7
2017-11-11T05:40:06.003Z,10.6
2017-11-11T05:40:46.572Z,10.56
2017-11-11T05:41:27.120Z,10.61
2017-11-11T05:42:07.691Z,10.59
2017-11-11T05:42:48.227Z,10.73
2017-11-11T05:43:28.820Z,10.74
2017-11-11T05:44:09.363Z,10.76
2017-11-11T05:44:49.922Z,10.66
2017-11-11T05:45:30.441Z,10.6
2017-11-11T05:46:11.023Z,10.6
2017-11-11T05:46:51.543Z,10.6
2017-11-11T05:47:32.075Z,10.73
2017-11-11T05:48:12.750Z,10.71
2017-11-11T05:48:53.302Z,10.73
2017-11-11T05:49:33.835Z,10.56
2017-11-11T05:50:14.379Z,10.66
2017-11-11T05:50:55.001Z,10.78
2017-11-11T05:51:35.513Z,10.71
2017-11-11T05:52:16.031Z,10.61
2017-11-11T05:52:56.654Z,10.56
2017-11-11T05:53:37.140Z,10.67
2017-11-11T05:54:17.748Z,10.76
2017-11-11T05:54:58.364Z,10.76
2017-11-11T05:55:38.940Z,10.84
2017-11-11T05:56:19.484Z,10.79
2017-11-11T05:57:00.049Z,10.67
2017-11-11T05:57:40.626Z,10.67
2017-11-11T05:58:21.180Z,10.71
2017-11-11T05:59:01.708Z,10.81
2017-11-11T05:59:42.245Z,10.82
2017-11-11T06:00:22.799Z,10.86
2017-11-11T06:01:03.354Z,10.79
2017-11-11T06:01:43.918Z,10.85
2017-11-11T06:02:24.440Z,10.82
2017-11-11T06:03:04.992Z,10.91
2017-11-11T06:03:45.500Z,10.82
2017-11-11T06:04:26.056Z,10.82
2017-11-11T06:05:06.725Z,10.89
2017-11-11T06:05:47.326Z,10.81
2017-11-11T06:06:27.852Z,10.79
2017-11-11T06:07:08.404Z,10.99
2017-11-11T06:07:48.959Z,10.81
2017-11-11T06:08:29.487Z,10.82
2017-11-11T06:09:10.042Z,10.76
2017-11-11T06:09:50.570Z,10.82
2017-11-11T06:10:31.091Z,10.81
2017-11-11T06:11:11.648Z,10.84
2017-11-11T06:11:52.181Z,10.81
2017-11-11T06:12:32.754Z,10.76
2017-11-11T06:13:13.282Z,10.74
2017-11-11T06:13:53.832Z,10.7
2017-11-11T06:14:34.431Z,10.73
2017-11-11T06:15:14.951Z,10.78
2017-11-11T06:15:55.523Z,10.73
2017-11-11T06:16:36.092Z,10.78
2017-11-11T06:17:16.629Z,10.85
2017-11-11T06:17:57.179Z,10.91
2017-11-11T06:18:37.728Z,10.79
2017-11-11T06:19:18.286Z,10.79
2017-11-11T06:19:58.792Z,10.78
2017-11-11T06:20:39.326Z,10.85
2017-11-11T06:21:19.895Z,10.94
2017-11-11T06:22:00.412Z,10.82
2017-11-11T06:22:40.969Z,10.79
2017-11-11T06:23:21.502Z,10.79
2017-11-11T06:24:02.031Z,10.86
2017-11-11T06:24:42.571Z,10.86
2017-11-11T06:25:23.088Z,10.86
2017-11-11T06:26:03.696Z,10.84
2017-11-11T06:26:44.351Z,10.88
2017-11-11T06:27:24.888Z,10.68
2017-11-11T06:28:05.437Z,10.85
2017-11-11T06:28:45.970Z,10.7
2017-11-11T06:29:26.525Z,10.81
2017-11-11T06:30:07.074Z,10.76
2017-11-11T06:30:48.185Z,10.78
2017-11-11T06:31:28.706Z,10.73
2017-11-11T06:32:09.336Z,10.7
2017-11-11T06:32:49.808Z,10.73
2017-11-11T06:33:30.387Z,10.78
2017-11-11T06:34:10.912Z,10.71
2017-11-11T06:34:51.484Z,10.71
2017-11-11T06:36:30.223Z,10.71
2017-11-11T06:37:10.735Z,10.81
2017-11-11T06:37:51.292Z,10.76
2017-11-11T06:38:31.794Z,10.7
2017-11-11T06:40:31.387Z,10.63
2017-11-11T06:41:11.929Z,10.7
2017-11-11T06:41:52.701Z,10.59
2017-11-11T06:42:33.236Z,10.73
2017-11-11T06:43:13.852Z,10.68
2017-11-11T06:43:54.599Z,10.63
2017-11-11T06:44:35.151Z,10.6
2017-11-11T06:45:15.686Z,10.59
2017-11-11T06:45:56.226Z,10.66
2017-11-11T06:46:36.802Z,10.6
2017-11-11T06:47:17.309Z,10.53
2017-11-11T06:47:57.857Z,10.59
2017-11-11T06:48:38.406Z,10.6
2017-11-11T06:49:19.001Z,10.6
2017-11-11T06:49:59.553Z,10.59
2017-11-11T06:50:40.062Z,10.63
2017-11-11T06:51:20.635Z,10.61
2017-11-11T06:52:01.164Z,10.63
2017-11-11T06:52:42.101Z,10.74
2017-11-11T06:53:25.809Z,10.78
2017-11-11T06:54:06.347Z,10.82
2017-11-11T06:55:59.918Z,10.74
2017-11-11T06:56:54.552Z,10.74
2017-11-11T07:00:19.310Z,10.48
2017-11-11T07:02:10.331Z,10.6
2017-11-11T07:03:00.834Z,10.76
2017-11-11T07:03:52.670Z,10.78
2017-11-11T07:04:53.979Z,10.61
2017-11-11T07:05:42.994Z,10.61
2017-11-11T07:06:31.296Z,10.64
2017-11-11T07:07:21.204Z,10.73
2017-11-11T07:08:09.918Z,10.78
2017-11-11T07:08:58.431Z,10.74
2017-11-11T07:09:47.290Z,10.7
2017-11-11T07:10:36.200Z,10.59
2017-11-11T07:11:25.230Z,10.68
2017-11-11T07:12:14.257Z,10.56
2017-11-11T07:13:03.284Z,10.67
2017-11-11T07:13:52.249Z,10.61
2017-11-11T07:14:41.400Z,10.64
2017-11-11T07:17:11.839Z,10.7
2017-11-11T07:19:03.899Z,10.56
2017-11-11T07:19:53.995Z,10.56
2017-11-11T07:20:43.547Z,10.61
2017-11-11T07:21:31.990Z,10.6
2017-11-11T07:22:21.061Z,10.53
2017-11-11T07:35:11.980Z,10.52
2017-11-11T07:36:01.364Z,10.44
2017-11-11T07:36:49.532Z,10.45
2017-11-11T07:37:38.474Z,10.45
2017-11-11T07:38:26.962Z,10.48
2017-11-11T07:39:15.512Z,10.66
2017-11-11T07:40:04.075Z,10.59
2017-11-11T07:40:52.847Z,10.55
2017-11-11T07:41:41.760Z,10.42
2017-11-11T07:42:30.562Z,10.55
2017-11-11T07:43:19.676Z,10.55
2017-11-11T07:44:08.567Z,10.51
2017-11-11T07:44:57.265Z,10.41
2017-11-11T07:45:45.868Z,10.6
2017-11-11T07:46:34.688Z,10.42
2017-11-11T07:47:23.361Z,10.53
2017-11-11T07:48:12.051Z,10.45
2017-11-11T07:49:00.951Z,10.41
2017-11-11T07:49:49.970Z,10.56
2017-11-11T07:50:38.932Z,10.56
2017-11-11T07:51:27.446Z,10.59
2017-11-11T07:52:16.328Z,10.51
2017-11-11T07:53:05.258Z,10.59
2017-11-11T07:53:54.293Z,10.48
2017-11-11T07:54:42.493Z,10.59
2017-11-11T07:55:32.693Z,10.7
2017-11-11T07:56:21.292Z,10.63
2017-11-11T07:59:42.811Z,10.85
2017-11-11T08:00:31.715Z,10.74
2017-11-11T08:01:20.647Z,10.84
2017-11-11T08:02:10.813Z,10.86
2017-11-11T08:05:39.872Z,10.84
2017-11-11T08:06:35.391Z,10.82
2017-11-11T08:07:27.414Z,10.79
2017-11-11T08:08:19.875Z,10.82
2017-11-11T08:09:08.675Z,10.78
2017-11-11T08:09:57.420Z,10.81
2017-11-11T08:12:02.348Z,10.61
2017-11-11T08:12:50.876Z,10.73
2017-11-11T08:13:34.994Z,10.73
2017-11-11T08:14:15.571Z,10.73
2017-11-11T08:14:57.454Z,10.81
2017-11-11T08:15:38.624Z,10.81
2017-11-11T08:16:18.966Z,10.85
2017-11-11T08:16:59.615Z,10.79
2017-11-11T08:17:40.135Z,10.78
2017-11-11T08:18:21.066Z,10.79
2017-11-11T08:19:01.526Z,10.79
2017-11-11T08:19:45.194Z,10.79
2017-11-11T08:20:25.648Z,10.74
2017-11-11T08:21:07.994Z,10.63
2017-11-11T08:21:49.330Z,10.71
2017-11-11T08:22:31.116Z,10.78
2017-11-11T08:23:12.250Z,10.66
2017-11-11T08:23:54.351Z,10.78
2017-11-11T08:24:37.450Z,10.86
2017-11-11T08:25:20.362Z,10.88
2017-11-11T08:26:03.386Z,10.88
2017-11-11T08:26:46.987Z,10.97
2017-11-11T08:27:27.494Z,10.85
2017-11-11T08:28:08.128Z,10.99
2017-11-11T08:28:48.683Z,10.79
2017-11-11T08:29:30.466Z,10.84
2017-11-11T08:30:12.658Z,10.78
2017-11-11T08:30:53.208Z,10.82
2017-11-11T08:31:33.792Z,10.78
2017-11-11T08:32:14.358Z,10.76
2017-11-11T08:32:55.036Z,10.76
2017-11-11T08:33:35.617Z,10.79
2017-11-11T08:34:16.154Z,10.74
2017-11-11T08:34:56.691Z,10.79
2017-11-11T08:35:37.200Z,10.88
2017-11-11T08:36:17.742Z,10.91
2017-11-11T08:36:58.291Z,10.94
2017-11-11T08:37:39.319Z,11
2017-11-11T08:38:19.925Z,10.94
2017-11-11T08:39:00.668Z,10.97
2017-11-11T08:39:41.510Z,11.03
2017-11-11T08:40:22.822Z,11
2017-11-11T08:41:03.256Z,10.92
2017-11-11T08:41:44.066Z,11
2017-11-11T08:42:24.587Z,10.99
2017-11-11T08:43:05.329Z,10.94
2017-11-11T08:43:46.822Z,10.94
2017-11-11T08:44:31.813Z,10.99
2017-11-11T08:45:12.374Z,10.99
2017-11-11T08:45:52.945Z,10.97
2017-11-11T08:46:33.487Z,10.99
2017-11-11T08:47:14.011Z,10.94
2017-11-11T08:47:54.834Z,10.99
2017-11-11T08:48:35.409Z,10.97
2017-11-11T08:49:15.955Z,10.94
2017-11-11T08:49:58.812Z,10.88
2017-11-11T08:50:39.518Z,10.94
2017-11-11T08:51:20.052Z,10.94
2017-11-11T08:52:00.809Z,10.91
2017-11-11T08:52:45.284Z,11
2017-11-11T08:53:27.627Z,10.81
2017-11-11T08:54:08.545Z,10.94
2017-11-11T08:54:49.505Z,11.06
2017-11-11T08:55:32.577Z,11.02
2017-11-11T08:56:13.390Z,10.99
2017-11-11T08:57:00.741Z,10.86
2017-11-11T08:57:44.334Z,10.88
2017-11-11T09:01:31.769Z,10.88
2017-11-11T09:02:14.447Z,10.88
2017-11-11T09:02:58.051Z,10.94
2017-11-11T09:03:39.251Z,10.92
2017-11-11T09:04:19.752Z,10.92
2017-11-11T09:05:06.733Z,11
2017-11-11T09:05:51.013Z,10.99
2017-11-11T09:09:16.140Z,10.96
2017-11-11T09:11:21.437Z,10.97
2017-11-11T09:12:11.077Z,11.06
2017-11-11T09:13:00.124Z,11.02
2017-11-11T09:13:48.563Z,11.02
2017-11-11T09:14:39.178Z,10.88
2017-11-11T09:15:28.066Z,10.97
2017-11-11T09:16:16.838Z,10.99
2017-11-11T09:17:05.312Z,10.99
2017-11-11T09:17:54.483Z,10.97
2017-11-11T09:18:43.019Z,10.96
2017-11-11T09:19:31.991Z,10.97
2017-11-11T09:20:19.731Z,11
2017-11-11T09:21:08.083Z,11.09
2017-11-11T09:21:56.966Z,11
2017-11-11T09:22:46.018Z,11.06
2017-11-11T09:23:35.252Z,11.21
2017-11-11T09:24:24.081Z,11.15
2017-11-11T09:25:12.725Z,11.04
2017-11-11T09:26:02.953Z,10.96
2017-11-11T09:26:53.198Z,11.09
2017-11-11T09:27:41.557Z,11.14
2017-11-11T09:28:30.145Z,10.97
2017-11-11T09:29:10.590Z,11.11
2017-11-11T09:29:51.152Z,10.97
2017-11-11T09:30:31.926Z,11.07
2017-11-11T09:31:12.709Z,11.14
2017-11-11T09:31:53.272Z,11.17
2017-11-11T09:32:33.761Z,11.15
2017-11-11T09:33:14.380Z,11.22